Time;durP1;ratioP1;P1;durP2;ratioP2;P2;SDS_P1;SDS_P2;PMS_P1;PMS_P2;Temp;Humidity;BMP_temperature;BMP_pressure;BME280_temperature;BME280_humidity;BME280_pressure;Samples;Min_cycle;Max_cycle;Signal;HPM_P1;HPM_P2
2023/04/28 00:01:51;;;;;;;6.40;3.40;;;;;;;4.93;74.08;101261.73;110184;1234;73840;-67
2023/04/28 00:04:19;;;;;;;6.60;3.40;;;;;;;4.94;73.68;101262.75;109897;1239;61151;-68
2023/04/28 00:06:49;;;;;;;7.10;3.20;;;;;;;4.96;73.29;101266.45;110213;1234;57684;-68
2023/04/28 00:09:18;;;;;;;9.10;3.70;;;;;;;5.01;73.08;101259.88;110204;1234;74312;-68
2023/04/28 00:11:46;;;;;;;6.80;3.90;;;;;;;5.03;72.85;101260.83;110197;1238;62032;-68
2023/04/28 00:14:15;;;;;;;8.00;3.40;;;;;;;5.04;73.04;101264.56;110006;1239;60044;-68
2023/04/28 00:16:44;;;;;;;6.80;3.30;;;;;;;5.03;72.87;101264.27;110101;1238;73793;-68
2023/04/28 00:19:13;;;;;;;5.50;3.30;;;;;;;4.99;72.89;101261.83;110165;1239;61563;-68
2023/04/28 00:21:42;;;;;;;7.70;3.20;;;;;;;4.94;73.68;101265.35;110171;1234;58246;-68
2023/04/28 00:24:11;;;;;;;5.30;3.30;;;;;;;4.93;73.38;101268.83;110348;1234;72702;-68
2023/04/28 00:26:40;;;;;;;7.00;3.20;;;;;;;4.91;73.51;101270.27;110330;1234;72138;-68
2023/04/28 00:29:08;;;;;;;8.40;3.40;;;;;;;4.89;73.72;101272.27;110282;1235;70903;-67
2023/04/28 00:31:37;;;;;;;11.80;3.70;;;;;;;4.87;74.01;101269.42;110322;1238;63865;-67
2023/04/28 00:34:06;;;;;;;6.20;3.50;;;;;;;4.83;74.31;101273.88;110297;1237;58794;-67
2023/04/28 00:36:34;;;;;;;6.10;3.20;;;;;;;4.80;74.54;101272.63;110241;1238;60915;-67
2023/04/28 00:39:03;;;;;;;6.10;3.30;;;;;;;4.77;74.71;101274.64;110322;1238;64909;-67
2023/04/28 00:41:34;;;;;;;6.10;3.40;;;;;;;4.77;73.96;101274.47;110349;1234;60849;-68
2023/04/28 00:44:03;;;;;;;7.10;3.80;;;;;;;4.79;74.19;101278.36;110340;1237;70416;-68
2023/04/28 00:46:33;;;;;;;6.60;3.10;;;;;;;4.79;73.76;101281.30;110348;1235;73859;-67
2023/04/28 00:49:03;;;;;;;9.60;3.60;;;;;;;4.79;74.13;101277.65;110292;1238;58583;-68
2023/04/28 00:51:32;;;;;;;10.20;3.50;;;;;;;4.78;74.15;101279.95;110271;1234;58223;-66
2023/04/28 00:54:01;;;;;;;7.30;3.90;;;;;;;4.79;74.09;101278.88;110268;1235;63647;-66
2023/04/28 00:56:30;;;;;;;8.60;3.40;;;;;;;4.79;73.99;101277.50;110115;1234;61633;-66
2023/04/28 00:58:59;;;;;;;7.90;3.70;;;;;;;4.80;74.02;101278.51;110346;1234;70354;-67
2023/04/28 01:01:28;;;;;;;8.90;3.40;;;;;;;4.78;74.59;101283.08;110363;1234;73118;-67
2023/04/28 01:03:57;;;;;;;8.50;3.60;;;;;;;4.77;74.29;101281.00;110115;1239;60930;-67
2023/04/28 01:06:28;;;;;;;7.70;3.50;;;;;;;4.77;74.17;101279.45;110303;1234;58449;-65
2023/04/28 01:08:57;;;;;;;5.90;3.40;;;;;;;4.74;74.53;101280.09;110232;1238;73606;-66
2023/04/28 01:11:25;;;;;;;7.30;3.50;;;;;;;4.67;75.63;101281.42;110263;1235;71709;-68
2023/04/28 01:14:19;;;;;;;8.50;3.80;;;;;;;4.63;74.86;101280.54;110291;1235;59158;-66
2023/04/28 01:16:48;;;;;;;7.90;3.90;;;;;;;4.60;74.55;101283.79;110234;1235;63156;-68
2023/04/28 01:19:23;;;;;;;7.90;3.30;;;;;;;4.59;75.94;101280.16;110261;1238;61917;-66
2023/04/28 01:21:52;;;;;;;8.00;3.60;;;;;;;4.64;75.93;101276.72;110290;1234;58260;-68
2023/04/28 01:24:22;;;;;;;5.50;3.40;;;;;;;4.65;77.22;101279.08;110283;1235;73532;-67
2023/04/28 01:26:51;;;;;;;7.90;4.00;;;;;;;4.61;77.10;101277.00;110369;1236;72516;-68
2023/04/28 01:29:19;;;;;;;6.60;3.80;;;;;;;4.62;76.49;101281.10;110236;1234;71451;-68
2023/04/28 01:31:48;;;;;;;9.70;3.80;;;;;;;4.61;76.48;101281.80;110287;1234;63749;-67
2023/04/28 01:34:17;;;;;;;8.00;3.70;;;;;;;4.63;76.42;101282.95;110252;1238;57826;-67
2023/04/28 01:36:46;;;;;;;8.90;3.40;;;;;;;4.63;76.06;101280.35;110255;1234;57744;-67
2023/04/28 01:39:15;;;;;;;7.60;3.70;;;;;;;4.60;75.94;101284.27;110331;1238;74333;-67
2023/04/28 01:41:44;;;;;;;6.40;3.30;;;;;;;4.55;76.03;101281.36;110353;1235;61235;-67
2023/04/28 01:44:13;;;;;;;8.60;3.60;;;;;;;4.50;76.20;101283.42;110333;1234;68780;-67
2023/04/28 01:46:42;;;;;;;5.30;3.70;;;;;;;4.41;77.42;101275.52;110241;1234;63035;-67
2023/04/28 01:49:11;;;;;;;6.40;3.30;;;;;;;4.47;77.69;101286.14;110328;1238;61885;-68
2023/04/28 01:51:41;;;;;;;8.00;3.30;;;;;;;4.51;77.85;101288.23;110313;1238;60667;-69
2023/04/28 01:54:10;;;;;;;7.30;3.40;;;;;;;4.58;77.64;101287.13;110130;1234;75358;-68
2023/04/28 01:56:40;;;;;;;9.00;2.70;;;;;;;4.56;77.38;101289.61;110140;1239;72238;-67
2023/04/28 01:59:08;;;;;;;7.00;3.30;;;;;;;4.58;77.44;101290.90;110138;1234;70076;-68
2023/04/28 02:01:37;;;;;;;8.00;3.50;;;;;;;4.59;77.59;101293.65;110192;1234;63615;-68
2023/04/28 02:04:06;;;;;;;7.10;3.40;;;;;;;4.57;78.06;101294.23;110183;1238;58508;-68
2023/04/28 02:06:35;;;;;;;9.20;3.80;;;;;;;4.59;78.25;101294.15;110199;1235;57828;-68
2023/04/28 02:09:04;;;;;;;9.00;3.30;;;;;;;4.60;78.10;101297.89;110350;1235;63718;-69
2023/04/28 02:11:34;;;;;;;7.60;3.40;;;;;;;4.60;78.01;101304.45;110339;1238;71838;-68
2023/04/28 02:14:02;;;;;;;8.60;3.50;;;;;;;4.57;78.50;101306.14;110315;1235;69044;-68
2023/04/28 02:16:32;;;;;;;6.70;3.30;;;;;;;4.54;77.82;101306.57;110128;1234;63554;-68
2023/04/28 02:19:01;;;;;;;9.30;3.70;;;;;;;4.51;78.16;101305.45;110142;1239;57772;-68
2023/04/28 02:21:30;;;;;;;5.60;3.20;;;;;;;4.48;78.68;101305.41;110444;1237;57680;-67
2023/04/28 02:23:59;;;;;;;6.00;3.30;;;;;;;4.48;78.93;101304.55;110401;1234;63678;-67
2023/04/28 02:26:28;;;;;;;6.60;3.40;;;;;;;4.47;79.07;101306.30;110390;1235;72152;-68
2023/04/28 02:28:56;;;;;;;6.60;3.60;;;;;;;4.49;79.23;101307.27;110397;1234;60653;-68
2023/04/28 02:31:25;;;;;;;6.80;3.50;;;;;;;4.49;79.57;101311.77;110296;1234;63122;-67
2023/04/28 02:33:54;;;;;;;9.50;3.50;;;;;;;4.49;79.81;101310.74;110306;1238;57720;-67
2023/04/28 02:36:24;;;;;;;7.50;3.50;;;;;;;4.42;80.60;101313.05;110174;1234;61188;-68
2023/04/28 02:38:52;;;;;;;9.40;4.10;;;;;;;4.44;80.31;101315.77;110098;1235;74697;-68
2023/04/28 02:41:21;;;;;;;7.00;3.60;;;;;;;4.43;80.63;101315.95;110338;1235;62015;-68
2023/04/28 02:43:50;;;;;;;7.50;4.00;;;;;;;4.41;81.09;101318.80;110303;1234;60049;-68
2023/04/28 02:46:19;;;;;;;7.90;3.80;;;;;;;4.41;80.16;101322.23;110227;1235;63242;-67
2023/04/28 02:48:48;;;;;;;6.00;3.60;;;;;;;4.38;80.39;101322.86;110333;1235;58322;-66
2023/04/28 02:51:16;;;;;;;7.20;3.00;;;;;;;4.35;80.76;101330.72;110232;1234;60938;-66
2023/04/28 02:53:45;;;;;;;5.90;3.50;;;;;;;4.31;81.39;101330.70;110254;1235;65092;-67
2023/04/28 02:56:14;;;;;;;10.50;3.50;;;;;;;4.30;81.67;101334.90;110309;1235;61590;-68
2023/04/28 02:58:43;;;;;;;7.80;4.10;;;;;;;4.28;81.78;101333.41;110245;1234;70467;-67
2023/04/28 03:01:11;;;;;;;7.30;3.80;;;;;;;4.24;82.14;101337.69;110385;1235;73429;-66
2023/04/28 03:03:40;;;;;;;10.00;4.30;;;;;;;4.21;82.72;101340.75;110278;1238;58308;-68
2023/04/28 03:06:09;;;;;;;6.40;3.50;;;;;;;4.17;83.08;101341.57;110339;1234;57711;-68
2023/04/28 03:08:38;;;;;;;7.50;3.20;;;;;;;4.15;82.71;101341.64;110187;1235;73795;-67
2023/04/28 03:11:06;;;;;;;11.60;4.30;;;;;;;4.16;82.52;101341.77;110195;1235;72057;-67
2023/04/28 03:13:36;;;;;;;8.30;4.40;;;;;;;4.14;82.44;101341.84;110113;1235;70762;-68
2023/04/28 03:16:06;;;;;;;6.50;3.50;;;;;;;4.14;82.59;101344.09;110273;1235;73506;-67
2023/04/28 03:18:35;;;;;;;8.70;4.70;;;;;;;4.15;82.67;101350.10;110158;1238;62482;-67
2023/04/28 03:21:05;;;;;;;7.70;4.40;;;;;;;4.12;83.24;101353.13;110229;1235;58547;-68
2023/04/28 03:23:34;;;;;;;8.70;4.20;;;;;;;4.11;82.93;101360.73;110289;1234;74327;-68
2023/04/28 03:26:02;;;;;;;9.70;3.90;;;;;;;4.12;83.19;101364.48;110229;1233;71669;-68
2023/04/28 03:28:32;;;;;;;8.40;3.70;;;;;;;4.11;83.13;101359.52;110283;1235;70232;-68
2023/04/28 03:31:01;;;;;;;6.30;3.40;;;;;;;4.09;83.44;101364.77;110266;1235;74465;-67
2023/04/28 03:33:31;;;;;;;8.00;3.60;;;;;;;4.10;82.97;101369.23;110286;1235;60618;-66
2023/04/28 03:36:00;;;;;;;7.70;3.70;;;;;;;4.10;82.98;101369.07;110310;1235;57737;-66
2023/04/28 03:38:29;;;;;;;6.70;3.60;;;;;;;4.12;83.90;101373.81;110410;1235;74169;-69
2023/04/28 03:40:57;;;;;;;8.80;3.40;;;;;;;4.13;83.93;101375.66;110317;1235;73205;-69
2023/04/28 03:43:34;;;;;;;5.60;3.00;;;;;;;4.17;84.05;101372.08;110437;1234;71378;-67
2023/04/28 03:46:45;;;;;;;7.40;3.60;;;;;;;4.21;84.01;101364.20;110325;1235;72598;-67
2023/04/28 03:49:14;;;;;;;6.70;3.40;;;;;;;4.22;83.72;101369.33;110148;1238;59826;-66
2023/04/28 03:51:43;;;;;;;6.90;3.90;;;;;;;4.23;83.68;101370.81;110356;1235;58212;-67
2023/04/28 03:54:12;;;;;;;9.60;3.70;;;;;;;4.29;83.24;101373.38;110174;1235;73584;-68
2023/04/28 03:56:41;;;;;;;6.60;3.00;;;;;;;4.26;83.43;101368.67;110191;1233;72015;-67
2023/04/28 03:59:11;;;;;;;6.70;3.50;;;;;;;4.35;83.27;101378.85;110132;1235;60458;-67
2023/04/28 04:01:39;;;;;;;7.20;3.20;;;;;;;4.44;82.82;101381.30;110040;1235;73884;-70
2023/04/28 04:04:08;;;;;;;7.00;3.60;;;;;;;4.51;82.58;101381.89;110256;1236;58370;-68
2023/04/28 04:06:38;;;;;;;5.40;3.30;;;;;;;4.56;82.01;101380.85;110293;1233;60626;-68
2023/04/28 04:09:07;;;;;;;5.70;2.80;;;;;;;4.68;81.65;101383.17;110303;1235;73473;-68
2023/04/28 04:11:35;;;;;;;10.00;3.70;;;;;;;4.78;81.07;101382.63;110258;1235;72004;-67
2023/04/28 04:14:05;;;;;;;5.50;3.10;;;;;;;4.81;80.59;101385.11;110144;1235;71581;-70
2023/04/28 04:16:35;;;;;;;6.10;3.50;;;;;;;4.87;80.43;101389.38;110103;1235;74376;-67
2023/04/28 04:19:05;;;;;;;7.60;3.60;;;;;;;4.92;80.22;101386.41;110218;1238;61360;-70
2023/04/28 04:21:41;;;;;;;7.30;3.00;;;;;;;4.99;79.73;101388.05;110091;1239;58295;-70
2023/04/28 04:24:10;;;;;;;5.90;3.40;;;;;;;5.02;79.50;101388.95;110235;1235;63048;-73
2023/04/28 04:26:39;;;;;;;6.40;3.20;;;;;;;5.08;79.32;101395.14;110323;1236;61596;-72
2023/04/28 04:29:22;;;;;;;8.80;3.20;;;;;;;5.15;79.03;101393.29;110232;1234;70552;-72
2023/04/28 04:31:51;;;;;;;4.90;3.10;;;;;;;5.21;78.75;101398.38;110209;1235;73405;-72
2023/04/28 04:34:20;;;;;;;7.00;3.10;;;;;;;5.27;78.60;101394.21;110242;1237;57768;-71
2023/04/28 04:36:49;;;;;;;8.20;3.70;;;;;;;5.36;78.16;101395.55;110327;1238;58319;-71
2023/04/28 04:39:18;;;;;;;10.10;3.10;;;;;;;5.42;77.97;101399.14;110241;1235;63226;-72
2023/04/28 04:41:48;;;;;;;6.20;3.30;;;;;;;5.43;78.02;101400.85;110250;1235;72163;-71
2023/04/28 04:44:37;;;;;;;9.00;3.70;;;;;;;5.51;77.64;101400.69;110231;1234;70006;-71
2023/04/28 04:47:09;;;;;;;6.40;3.30;;;;;;;5.55;77.65;101400.16;110071;1235;63900;-71
2023/04/28 04:49:38;;;;;;;5.40;3.10;;;;;;;5.66;76.99;101399.91;110232;1235;62080;-71
2023/04/28 04:52:07;;;;;;;5.10;3.20;;;;;;;5.72;76.71;101402.58;110128;1238;57751;-70
2023/04/28 04:54:36;;;;;;;6.30;3.20;;;;;;;5.76;76.57;101404.16;110143;1235;62991;-70
2023/04/28 04:57:05;;;;;;;8.90;2.90;;;;;;;5.82;76.44;101404.27;110122;1239;60889;-71
2023/04/28 05:00:03;;;;;;;9.00;3.60;;;;;;;5.87;76.65;101407.32;110224;1234;70483;-71
2023/04/28 05:02:32;;;;;;;7.20;3.60;;;;;;;5.93;76.77;101407.82;110313;1235;74281;-71
2023/04/28 05:05:01;;;;;;;7.70;3.40;;;;;;;6.04;76.97;101405.45;110243;1238;58322;-71
2023/04/28 05:07:51;;;;;;;6.70;3.50;;;;;;;6.15;76.62;101400.81;110285;1237;57799;-72
2023/04/28 05:10:21;;;;;;;7.80;3.50;;;;;;;6.19;75.68;101408.26;110125;1235;64532;-71
2023/04/28 05:12:49;;;;;;;7.90;3.50;;;;;;;6.28;75.54;101404.73;110305;1235;71298;-72
2023/04/28 05:15:18;;;;;;;7.30;3.50;;;;;;;6.39;75.22;101407.92;110348;1234;70783;-71
2023/04/28 05:18:09;;;;;;;8.40;3.80;;;;;;;6.51;74.71;101407.55;110328;1234;73826;-71
2023/04/28 05:20:38;;;;;;;7.60;3.60;;;;;;;6.60;74.25;101409.89;110051;1241;58389;-71
2023/04/28 05:23:08;;;;;;;6.40;3.50;;;;;;;6.72;73.99;101410.94;110141;1238;58015;-71
2023/04/28 05:25:37;;;;;;;6.30;3.00;;;;;;;6.81;73.90;101412.59;110060;1235;74249;-71
2023/04/28 05:28:09;;;;;;;8.60;3.60;;;;;;;6.91;73.72;101415.96;110261;1234;71938;-72
2023/04/28 05:30:38;;;;;;;6.30;3.60;;;;;;;6.88;73.63;101407.29;110070;1238;60663;-72
2023/04/28 05:33:07;;;;;;;5.20;3.30;;;;;;;7.04;72.94;101415.70;110065;1238;73891;-72
2023/04/28 05:35:36;;;;;;;7.70;3.80;;;;;;;7.19;72.73;101416.23;110129;1235;62294;-73
2023/04/28 05:38:05;;;;;;;6.50;3.40;;;;;;;7.34;72.11;101415.00;110157;1234;61168;-72
2023/04/28 05:40:34;;;;;;;5.90;3.10;;;;;;;7.38;70.88;101419.84;110161;1238;72271;-72
2023/04/28 05:43:03;;;;;;;7.30;3.40;;;;;;;7.38;71.24;101423.28;110145;1238;61673;-72
2023/04/28 05:45:32;;;;;;;7.70;3.80;;;;;;;7.43;70.89;101423.75;110026;1238;59238;-72
2023/04/28 05:48:01;;;;;;;6.80;3.40;;;;;;;7.51;70.55;101423.54;110003;1234;73941;-71
2023/04/28 05:50:30;;;;;;;8.30;3.50;;;;;;;7.57;70.41;101425.84;109907;1235;60872;-72
2023/04/28 05:53:02;;;;;;;7.60;3.90;;;;;;;7.67;69.94;101425.35;110005;1235;61549;-72
2023/04/28 05:55:32;;;;;;;6.40;3.50;;;;;;;7.66;69.96;101426.06;110057;1238;64174;-72
2023/04/28 05:58:02;;;;;;;5.80;3.30;;;;;;;7.77;69.91;101428.87;110204;1238;60893;-72
2023/04/28 06:00:33;;;;;;;9.40;4.40;;;;;;;7.89;68.48;101427.05;110342;1238;59853;-72
2023/04/28 06:03:02;;;;;;;9.50;3.90;;;;;;;7.93;68.65;101433.44;110171;1235;73827;-72
2023/04/28 06:05:31;;;;;;;9.50;3.80;;;;;;;8.05;68.70;101432.84;110269;1237;60873;-72
2023/04/28 06:08:00;;;;;;;9.30;4.10;;;;;;;8.12;68.24;101435.42;110302;1235;59316;-72
2023/04/28 06:10:29;;;;;;;7.90;3.70;;;;;;;8.18;68.11;101438.42;110313;1235;74905;-72
2023/04/28 06:12:57;;;;;;;6.50;3.40;;;;;;;8.28;66.88;101436.20;110321;1235;72858;-71
2023/04/28 06:15:26;;;;;;;6.90;3.40;;;;;;;8.34;65.76;101440.58;110208;1239;59855;-71
2023/04/28 06:17:55;;;;;;;6.90;3.70;;;;;;;8.39;65.57;101435.66;110308;1238;63179;-71
2023/04/28 06:20:24;;;;;;;6.70;3.70;;;;;;;8.50;65.87;101434.52;110281;1238;59350;-72
2023/04/28 06:22:54;;;;;;;7.10;3.20;;;;;;;8.62;65.68;101433.91;110332;1239;61642;-72
2023/04/28 06:25:23;;;;;;;7.90;3.40;;;;;;;8.60;65.74;101444.64;110207;1239;64345;-72
2023/04/28 06:27:52;;;;;;;8.70;4.00;;;;;;;8.66;65.85;101439.09;110312;1241;61633;-71
2023/04/28 06:30:22;;;;;;;10.30;4.30;;;;;;;8.78;65.37;101450.11;110366;1234;69940;-71
2023/04/28 06:32:51;;;;;;;10.90;5.40;;;;;;;8.79;65.29;101438.09;110248;1235;74108;-72
2023/04/28 06:35:21;;;;;;;6.30;3.30;;;;;;;8.85;65.37;101441.92;110252;1238;58490;-71
2023/04/28 06:37:49;;;;;;;10.80;4.10;;;;;;;8.95;65.34;101439.44;110213;1239;61172;-71
2023/04/28 06:40:18;;;;;;;9.10;3.80;;;;;;;9.09;64.50;101443.59;110265;1238;64197;-72
2023/04/28 06:42:52;;;;;;;4.70;2.90;;;;;;;9.20;62.60;101442.41;110286;1238;61381;-73
2023/04/28 06:45:25;;;;;;;9.00;3.50;;;;;;;9.31;62.16;101450.69;110300;1238;59970;-71
2023/04/28 06:47:57;;;;;;;5.40;3.30;;;;;;;9.39;62.71;101448.71;110355;1237;63298;-73
2023/04/28 06:50:26;;;;;;;8.90;4.10;;;;;;;9.46;62.68;101452.13;110274;1238;60511;-73
2023/04/28 06:52:54;;;;;;;5.30;3.40;;;;;;;9.39;61.57;101446.11;110268;1238;61831;-75
2023/04/28 06:55:23;;;;;;;8.30;3.60;;;;;;;9.40;61.88;101454.88;110290;1238;63006;-71
2023/04/28 06:57:52;;;;;;;10.80;4.10;;;;;;;9.48;61.89;101455.66;110316;1235;60947;-73
2023/04/28 07:00:21;;;;;;;6.70;4.00;;;;;;;9.49;61.88;101450.40;110280;1238;59176;-73
2023/04/28 07:02:50;;;;;;;8.30;3.70;;;;;;;9.58;61.80;101453.70;110338;1235;72993;-72
2023/04/28 07:05:19;;;;;;;7.60;3.70;;;;;;;9.69;62.08;101455.49;110320;1237;61529;-73
2023/04/28 07:07:47;;;;;;;5.60;2.80;;;;;;;9.75;60.82;101452.23;110328;1237;60846;-72
2023/04/28 07:10:16;;;;;;;7.60;3.10;;;;;;;9.83;58.72;101444.99;110327;1237;63697;-71
2023/04/28 07:12:45;;;;;;;4.40;2.60;;;;;;;9.91;58.37;101451.64;110361;1235;60755;-73
2023/04/28 07:15:14;;;;;;;5.80;2.60;;;;;;;9.97;57.49;101455.33;110277;1235;70445;-74
2023/04/28 07:17:42;;;;;;;5.50;3.00;;;;;;;10.05;56.63;101454.84;110313;1237;73793;-72
2023/04/28 07:20:13;;;;;;;6.50;2.50;;;;;;;10.08;56.12;101454.65;110334;1238;58384;-73
2023/04/28 07:22:42;;;;;;;4.20;2.20;;;;;;;10.09;55.76;101456.55;110364;1235;57706;-72
2023/04/28 07:25:11;;;;;;;3.90;2.60;;;;;;;10.11;55.57;101460.20;110137;1235;74334;-73
2023/04/28 07:27:39;;;;;;;6.10;2.60;;;;;;;10.21;55.30;101457.54;110129;1236;71772;-73
2023/04/28 07:30:08;;;;;;;6.00;2.00;;;;;;;10.25;54.43;101458.02;110314;1235;59991;-72
2023/04/28 07:32:54;;;;;;;5.80;2.40;;;;;;;10.24;53.66;101450.39;110358;1235;63269;-72
2023/04/28 07:35:24;;;;;;;6.20;2.40;;;;;;;10.31;53.95;101456.09;110354;1235;57813;-72
2023/04/28 07:37:53;;;;;;;6.90;2.80;;;;;;;10.41;54.51;101446.32;110336;1235;61101;-72
2023/04/28 07:40:22;;;;;;;4.90;2.30;;;;;;;10.49;53.77;101456.96;110355;1235;63487;-72
2023/04/28 07:42:51;;;;;;;4.30;2.30;;;;;;;10.56;52.56;101446.80;110214;1235;60933;-73
2023/04/28 07:45:20;;;;;;;4.70;2.60;;;;;;;10.75;52.32;101446.64;110367;1235;59240;-73
2023/04/28 07:47:49;;;;;;;5.00;2.80;;;;;;;10.91;52.40;101443.92;110175;1235;62471;-72
2023/04/28 07:50:18;;;;;;;6.30;2.20;;;;;;;11.07;51.92;101445.02;110131;1239;57769;-73
2023/04/28 07:52:47;;;;;;;3.90;2.60;;;;;;;11.25;52.26;101436.06;110379;1235;61279;-72
2023/04/28 07:55:15;;;;;;;5.00;2.60;;;;;;;11.45;52.04;101441.19;110277;1234;74784;-71
2023/04/28 07:57:44;;;;;;;5.30;2.40;;;;;;;11.42;51.91;101433.90;110343;1235;62173;-72
2023/04/28 08:00:13;;;;;;;3.70;2.20;;;;;;;11.73;48.94;101436.45;110340;1235;70605;-72
2023/04/28 08:02:42;;;;;;;4.70;2.00;;;;;;;11.75;48.61;101429.16;110339;1235;63776;-73
2023/04/28 08:05:11;;;;;;;5.40;2.40;;;;;;;11.67;49.49;101424.60;110353;1237;57804;-73
2023/04/28 08:07:40;;;;;;;4.40;2.10;;;;;;;11.84;49.59;101423.02;110183;1234;57692;-72
2023/04/28 08:10:10;;;;;;;4.80;2.00;;;;;;;11.92;48.10;101424.92;110336;1235;73708;-73
2023/04/28 08:12:40;;;;;;;6.00;2.40;;;;;;;12.00;47.69;101424.94;110331;1234;61163;-73
2023/04/28 08:15:09;;;;;;;3.70;1.90;;;;;;;11.88;47.29;101421.66;110337;1235;60008;-72
2023/04/28 08:17:38;;;;;;;4.50;2.20;;;;;;;12.00;46.28;101412.16;110251;1235;63276;-73
2023/04/28 08:20:08;;;;;;;6.60;2.50;;;;;;;12.25;45.40;101410.60;110306;1237;57800;-73
2023/04/28 08:22:36;;;;;;;3.20;1.70;;;;;;;12.38;45.04;101412.70;110093;1234;338896;-72
2023/04/28 08:25:06;;;;;;;5.50;2.40;;;;;;;12.35;44.73;101406.29;110260;1235;64160;-72
2023/04/28 08:27:37;;;;;;;5.50;3.70;;;;;;;12.43;44.47;101406.10;110212;1235;72400;-73
2023/04/28 08:30:09;;;;;;;6.10;5.20;;;;;;;12.43;44.50;101405.02;110354;1234;70827;-74
2023/04/28 08:32:37;;;;;;;7.30;2.40;;;;;;;12.32;43.99;101406.29;110332;1235;74473;-72
2023/04/28 08:35:07;;;;;;;5.70;2.90;;;;;;;12.10;44.06;101408.85;110317;1235;57781;-72
2023/04/28 08:37:36;;;;;;;6.70;2.70;;;;;;;12.10;45.02;101404.65;110230;1235;60493;-72
2023/04/28 08:40:08;;;;;;;5.30;2.50;;;;;;;12.43;44.29;101408.38;110313;1235;74007;-71
2023/04/28 08:42:38;;;;;;;3.70;2.60;;;;;;;12.52;43.66;101402.30;110337;1235;63406;-73
2023/04/28 08:45:12;;;;;;;4.80;2.40;;;;;;;12.43;43.65;101400.95;110233;1235;69866;-74
2023/04/28 08:47:46;;;;;;;4.80;2.90;;;;;;;12.51;43.17;101394.85;110201;1238;73334;-72
2023/04/28 08:50:20;;;;;;;5.10;2.70;;;;;;;12.48;42.87;101389.77;110089;1238;57727;-72
2023/04/28 08:52:51;;;;;;;4.30;2.40;;;;;;;12.52;42.96;101397.27;110224;1235;58328;-72
2023/04/28 08:55:20;;;;;;;4.70;2.30;;;;;;;12.59;42.30;101394.83;110219;1235;65435;-72
2023/04/28 08:57:53;;;;;;;5.30;2.70;;;;;;;12.44;42.31;101391.69;110099;1235;70696;-73
2023/04/28 09:00:23;;;;;;;7.90;2.60;;;;;;;12.49;42.28;101393.95;109988;1234;60479;-72
2023/04/28 09:02:52;;;;;;;4.60;2.50;;;;;;;12.48;42.07;101392.77;110068;1235;62457;-72
2023/04/28 09:05:21;;;;;;;3.80;2.60;;;;;;;12.56;42.66;101384.23;110136;1235;59539;-73
2023/04/28 09:07:50;;;;;;;4.20;2.30;;;;;;;12.71;42.82;101381.95;110139;1237;60435;-73
2023/04/28 09:10:22;;;;;;;8.40;2.70;;;;;;;12.82;42.15;101381.98;110060;1235;74845;-73
2023/04/28 09:12:53;;;;;;;5.80;2.60;;;;;;;12.90;42.33;101380.55;110025;1234;73233;-73
2023/04/28 09:15:39;;;;;;;5.10;2.40;;;;;;;12.97;42.26;101378.81;110032;1234;71093;-72
2023/04/28 09:18:13;;;;;;;5.40;2.50;;;;;;;12.90;42.20;101379.52;110202;1235;63615;-72
2023/04/28 09:20:43;;;;;;;5.40;2.40;;;;;;;12.85;42.01;101382.13;110230;1237;57805;-72
2023/04/28 09:23:16;;;;;;;4.50;2.30;;;;;;;12.70;41.80;101377.42;110179;1235;58159;-72
2023/04/28 09:26:06;;;;;;;5.20;2.70;;;;;;;12.70;41.95;101376.70;110284;1234;74393;-73
2023/04/28 09:28:35;;;;;;;4.20;2.50;;;;;;;12.63;42.53;101371.86;110319;1235;61974;-73
2023/04/28 09:31:04;;;;;;;6.30;2.70;;;;;;;13.00;42.18;101381.08;110348;1234;68945;-73
2023/04/28 09:33:33;;;;;;;5.50;2.20;;;;;;;12.97;41.27;101386.55;110296;1235;74291;-73
2023/04/28 09:36:02;;;;;;;3.80;2.40;;;;;;;12.84;41.19;101364.42;110306;1235;58403;-73
2023/04/28 09:38:31;;;;;;;6.00;2.20;;;;;;;12.70;41.16;101369.80;110103;1235;59963;-73
2023/04/28 09:41:01;;;;;;;3.70;2.40;;;;;;;12.62;40.93;101372.05;110256;1234;65684;-73
2023/04/28 09:43:34;;;;;;;3.90;2.10;;;;;;;12.67;40.75;101375.19;110337;1235;61730;-72
2023/04/28 09:46:04;;;;;;;6.50;2.30;;;;;;;12.97;40.72;101368.15;109969;1234;59862;-73
2023/04/28 09:48:36;;;;;;;3.60;2.30;;;;;;;13.26;40.41;101368.19;110078;1235;74536;-73
2023/04/28 09:51:07;;;;;;;5.50;2.70;;;;;;;13.40;39.83;101356.48;110089;1238;58252;-73
2023/04/28 09:53:38;;;;;;;9.80;2.70;;;;;;;13.34;39.13;101360.80;110007;1234;60522;-73
2023/04/28 09:56:07;;;;;;;3.90;2.10;;;;;;;13.32;39.43;101348.35;110240;1234;74361;-73
2023/04/28 09:58:39;;;;;;;4.80;2.20;;;;;;;13.41;39.85;101349.77;110296;1234;62098;-72
2023/04/28 10:01:10;;;;;;;3.70;2.30;;;;;;;13.44;40.48;101352.55;110187;1234;59993;-72
2023/04/28 10:03:40;;;;;;;5.30;2.30;;;;;;;13.41;39.53;101357.13;110076;1234;63212;-73
2023/04/28 10:06:09;;;;;;;3.70;2.40;;;;;;;13.37;38.66;101357.95;110307;1236;57782;-73
2023/04/28 10:08:39;;;;;;;6.70;2.40;;;;;;;13.41;37.76;101346.42;110217;1235;57742;-72
2023/04/28 10:11:08;;;;;;;5.20;2.60;;;;;;;13.61;38.07;101348.81;110217;1234;74284;-73
2023/04/28 10:13:37;;;;;;;4.70;2.70;;;;;;;13.55;39.08;101349.07;110078;1234;61933;-73
2023/04/28 10:16:07;;;;;;;4.50;2.60;;;;;;;13.31;39.00;101362.21;110218;1234;59510;-73
2023/04/28 10:18:37;;;;;;;5.30;2.60;;;;;;;13.30;39.30;101360.91;110216;1236;73813;-72
2023/04/28 10:21:08;;;;;;;4.40;2.10;;;;;;;13.13;39.74;101356.16;110295;1235;58313;-73
2023/04/28 10:24:02;;;;;;;4.70;2.10;;;;;;;13.10;40.20;101356.91;110231;1234;61108;-72
2023/04/28 10:27:08;;;;;;;5.60;2.50;;;;;;;13.35;39.57;101354.59;110283;1234;74941;-73
2023/04/28 10:29:37;;;;;;;5.80;2.50;;;;;;;13.36;39.74;101342.78;110216;1234;72847;-72
2023/04/28 10:32:20;;;;;;;4.10;2.20;;;;;;;13.18;39.82;101364.23;110292;1234;70697;-73
2023/04/28 10:34:49;;;;;;;6.40;2.20;;;;;;;12.88;40.06;101358.83;110212;1234;62511;-73
2023/04/28 10:37:18;;;;;;;6.30;2.80;;;;;;;13.32;39.87;101347.98;110282;1235;59338;-72
2023/04/28 10:40:28;;;;;;;5.30;2.20;;;;;;;13.92;39.13;101351.51;110229;1235;61732;-74
2023/04/28 10:42:57;;;;;;;4.40;2.50;;;;;;;14.09;38.56;101346.18;110317;1235;64505;-73
2023/04/28 10:45:47;;;;;;;5.50;2.50;;;;;;;14.02;38.54;101332.58;110069;1234;72765;-73
2023/04/28 10:48:20;;;;;;;5.50;2.70;;;;;;;13.86;39.06;101368.27;110078;1234;60287;-72
2023/04/28 10:51:11;;;;;;;4.30;2.50;;;;;;;13.71;39.53;101347.55;109996;1234;64325;-73
2023/04/28 10:53:43;;;;;;;5.00;2.80;;;;;;;13.73;39.11;101356.70;110159;1237;60506;-73
2023/04/28 10:56:23;;;;;;;6.50;2.60;;;;;;;13.52;38.78;101355.27;110156;1235;57766;-74
2023/04/28 10:58:57;;;;;;;5.50;2.10;;;;;;;13.85;39.04;101342.97;110114;1238;62971;-73
2023/04/28 11:01:33;;;;;;;5.90;2.80;;;;;;;13.94;39.31;101353.66;109973;1234;63006;-73
2023/04/28 11:04:09;;;;;;;5.40;3.00;;;;;;;13.97;39.26;101337.85;110318;1234;60430;-74
2023/04/28 11:07:00;;;;;;;7.20;2.10;;;;;;;13.74;39.24;101346.13;110217;1234;72650;-74
2023/04/28 11:09:31;;;;;;;4.50;2.10;;;;;;;13.71;37.54;101357.84;110265;1234;60942;-73
2023/04/28 11:12:04;;;;;;;5.20;2.40;;;;;;;13.65;36.90;101354.08;110354;1237;58365;-74
2023/04/28 11:14:34;;;;;;;;;;;;;;;13.58;37.22;101342.93;110388;1235;63791;-73
2023/04/28 11:17:10;;;;;;;10.70;2.40;;;;;;;13.42;37.93;101345.87;110257;1234;60964;-74
2023/04/28 11:19:44;;;;;;;8.20;2.80;;;;;;;13.12;38.81;101339.82;110347;1234;70404;-73
2023/04/28 11:22:16;;;;;;;6.50;2.40;;;;;;;13.07;39.50;101337.77;110092;1234;62857;-72
2023/04/28 11:24:59;;;;;;;6.40;2.50;;;;;;;13.04;40.11;101351.95;110217;1238;58379;-73
2023/04/28 11:27:31;;;;;;;3.60;2.30;;;;;;;12.83;40.67;101349.27;110320;1235;58128;-72
2023/04/28 11:30:00;;;;;;;4.90;2.90;;;;;;;12.87;40.68;101348.13;110220;1238;62882;-73
2023/04/28 11:32:35;;;;;;;4.30;2.50;;;;;;;12.89;40.60;101349.51;110218;1234;61659;-72
2023/04/28 11:35:08;;;;;;;7.10;2.60;;;;;;;13.05;40.00;101358.33;110215;1234;69936;-73
2023/04/28 11:37:37;;;;;;;6.60;3.20;;;;;;;13.37;39.92;101343.08;110206;1238;63610;-73
2023/04/28 11:40:12;;;;;;;6.50;2.80;;;;;;;13.42;40.54;101342.19;110169;1237;58314;-73